sensor_id;sensor_type;location;lat;lon;timestamp;temperature;humidity
32446;DHT22;18899;50.748;7.102;2023-08-17T00:01:39;19.80;99.90
32446;DHT22;18899;50.748;7.102;2023-08-17T00:04:04;19.80;99.90
32446;DHT22;18899;50.748;7.102;2023-08-17T00:06:30;19.80;99.90
32446;DHT22;18899;50.748;7.102;2023-08-17T00:08:55;19.80;99.90
32446;DHT22;18899;50.748;7.102;2023-08-17T00:11:21;19.80;99.90
32446;DHT22;18899;50.748;7.102;2023-08-17T00:13:47;19.80;99.90
32446;DHT22;18899;50.748;7.102;2023-08-17T00:16:12;19.80;99.90
32446;DHT22;18899;50.748;7.102;2023-08-17T00:18:38;19.80;99.90
32446;DHT22;18899;50.748;7.102;2023-08-17T00:21:04;19.80;99.90
32446;DHT22;18899;50.748;7.102;2023-08-17T00:23:29;19.80;99.90
32446;DHT22;18899;50.748;7.102;2023-08-17T00:25:55;19.80;99.90
32446;DHT22;18899;50.748;7.102;2023-08-17T00:28:20;19.80;99.90
32446;DHT22;18899;50.748;7.102;2023-08-17T00:30:46;19.80;99.90
32446;DHT22;18899;50.748;7.102;2023-08-17T00:33:11;19.90;99.90
32446;DHT22;18899;50.748;7.102;2023-08-17T00:35:37;19.90;99.90
32446;DHT22;18899;50.748;7.102;2023-08-17T00:38:02;19.80;99.90
32446;DHT22;18899;50.748;7.102;2023-08-17T00:40:28;19.90;99.90
32446;DHT22;18899;50.748;7.102;2023-08-17T00:42:54;19.90;99.90
32446;DHT22;18899;50.748;7.102;2023-08-17T00:45:19;19.90;99.90
32446;DHT22;18899;50.748;7.102;2023-08-17T00:47:47;19.90;99.90
32446;DHT22;18899;50.748;7.102;2023-08-17T00:50:13;19.90;99.90
32446;DHT22;18899;50.748;7.102;2023-08-17T00:52:40;19.90;99.90
32446;DHT22;18899;50.748;7.102;2023-08-17T00:55:07;19.90;99.90
32446;DHT22;18899;50.748;7.102;2023-08-17T00:57:35;19.90;99.90
32446;DHT22;18899;50.748;7.102;2023-08-17T01:00:01;19.90;99.90
32446;DHT22;18899;50.748;7.102;2023-08-17T01:02:29;20.00;99.90
32446;DHT22;18899;50.748;7.102;2023-08-17T01:04:55;20.00;99.90
32446;DHT22;18899;50.748;7.102;2023-08-17T01:07:21;20.00;99.90
32446;DHT22;18899;50.748;7.102;2023-08-17T01:09:47;20.00;99.90
32446;DHT22;18899;50.748;7.102;2023-08-17T01:12:29;20.00;99.90
32446;DHT22;18899;50.748;7.102;2023-08-17T01:15:14;20.10;99.90
32446;DHT22;18899;50.748;7.102;2023-08-17T01:17:45;20.10;99.90
32446;DHT22;18899;50.748;7.102;2023-08-17T01:20:14;20.10;99.90
32446;DHT22;18899;50.748;7.102;2023-08-17T01:22:42;20.10;99.90
32446;DHT22;18899;50.748;7.102;2023-08-17T01:25:10;20.10;99.90
32446;DHT22;18899;50.748;7.102;2023-08-17T01:27:43;20.00;99.90
32446;DHT22;18899;50.748;7.102;2023-08-17T01:30:11;20.00;99.90
32446;DHT22;18899;50.748;7.102;2023-08-17T01:32:54;19.90;99.90
32446;DHT22;18899;50.748;7.102;2023-08-17T01:35:38;19.90;99.90
32446;DHT22;18899;50.748;7.102;2023-08-17T01:38:12;19.90;99.90
32446;DHT22;18899;50.748;7.102;2023-08-17T01:40:38;19.80;99.90
32446;DHT22;18899;50.748;7.102;2023-08-17T01:43:03;19.80;99.90
32446;DHT22;18899;50.748;7.102;2023-08-17T01:45:30;19.80;99.90
32446;DHT22;18899;50.748;7.102;2023-08-17T01:47:55;19.80;99.90
32446;DHT22;18899;50.748;7.102;2023-08-17T01:50:21;19.70;99.90
32446;DHT22;18899;50.748;7.102;2023-08-17T01:52:47;19.70;99.90
32446;DHT22;18899;50.748;7.102;2023-08-17T01:55:12;19.70;99.90
32446;DHT22;18899;50.748;7.102;2023-08-17T01:57:38;19.70;99.90
32446;DHT22;18899;50.748;7.102;2023-08-17T02:00:06;19.70;99.90
32446;DHT22;18899;50.748;7.102;2023-08-17T02:02:32;19.70;99.90
32446;DHT22;18899;50.748;7.102;2023-08-17T02:04:57;19.80;99.90
32446;DHT22;18899;50.748;7.102;2023-08-17T02:07:23;19.80;99.90
32446;DHT22;18899;50.748;7.102;2023-08-17T02:09:48;19.80;99.90
32446;DHT22;18899;50.748;7.102;2023-08-17T02:12:14;19.80;99.90
32446;DHT22;18899;50.748;7.102;2023-08-17T02:14:40;19.80;99.90
32446;DHT22;18899;50.748;7.102;2023-08-17T02:17:05;19.70;99.90
32446;DHT22;18899;50.748;7.102;2023-08-17T02:19:31;19.70;99.90
32446;DHT22;18899;50.748;7.102;2023-08-17T02:21:58;19.70;99.90
32446;DHT22;18899;50.748;7.102;2023-08-17T02:24:24;19.60;99.90
32446;DHT22;18899;50.748;7.102;2023-08-17T02:26:49;19.60;99.90
32446;DHT22;18899;50.748;7.102;2023-08-17T02:29:15;19.60;99.90
32446;DHT22;18899;50.748;7.102;2023-08-17T02:31:41;19.70;99.90
32446;DHT22;18899;50.748;7.102;2023-08-17T02:34:06;19.70;99.90
32446;DHT22;18899;50.748;7.102;2023-08-17T02:36:33;19.80;99.90
32446;DHT22;18899;50.748;7.102;2023-08-17T02:38:58;19.80;99.90
32446;DHT22;18899;50.748;7.102;2023-08-17T02:41:24;19.80;99.90
32446;DHT22;18899;50.748;7.102;2023-08-17T02:43:49;19.70;99.90
32446;DHT22;18899;50.748;7.102;2023-08-17T02:46:15;19.70;99.90
32446;DHT22;18899;50.748;7.102;2023-08-17T02:48:40;19.70;99.90
32446;DHT22;18899;50.748;7.102;2023-08-17T02:51:06;19.70;99.90
32446;DHT22;18899;50.748;7.102;2023-08-17T02:53:31;19.70;99.90
32446;DHT22;18899;50.748;7.102;2023-08-17T02:55:57;19.80;99.90
32446;DHT22;18899;50.748;7.102;2023-08-17T02:58:22;19.80;99.90
32446;DHT22;18899;50.748;7.102;2023-08-17T03:00:51;19.80;99.90
32446;DHT22;18899;50.748;7.102;2023-08-17T03:03:16;19.70;99.90
32446;DHT22;18899;50.748;7.102;2023-08-17T03:05:42;19.70;99.90
32446;DHT22;18899;50.748;7.102;2023-08-17T03:08:07;19.70;99.90
32446;DHT22;18899;50.748;7.102;2023-08-17T03:10:33;19.70;99.90
32446;DHT22;18899;50.748;7.102;2023-08-17T03:12:59;19.80;99.90
32446;DHT22;18899;50.748;7.102;2023-08-17T03:15:24;19.70;99.90
32446;DHT22;18899;50.748;7.102;2023-08-17T03:17:50;19.70;99.90
32446;DHT22;18899;50.748;7.102;2023-08-17T03:20:15;19.80;99.90
32446;DHT22;18899;50.748;7.102;2023-08-17T03:22:41;19.80;99.90
32446;DHT22;18899;50.748;7.102;2023-08-17T03:25:07;19.70;99.90
32446;DHT22;18899;50.748;7.102;2023-08-17T03:27:32;19.80;99.90
32446;DHT22;18899;50.748;7.102;2023-08-17T03:29:58;19.70;99.90
32446;DHT22;18899;50.748;7.102;2023-08-17T03:32:23;19.70;99.90
32446;DHT22;18899;50.748;7.102;2023-08-17T03:34:49;19.80;99.90
32446;DHT22;18899;50.748;7.102;2023-08-17T03:37:14;19.70;99.90
32446;DHT22;18899;50.748;7.102;2023-08-17T03:39:40;19.70;99.90
32446;DHT22;18899;50.748;7.102;2023-08-17T03:42:06;19.70;99.90
32446;DHT22;18899;50.748;7.102;2023-08-17T03:44:32;19.70;99.90
32446;DHT22;18899;50.748;7.102;2023-08-17T03:46:58;19.70;99.90
32446;DHT22;18899;50.748;7.102;2023-08-17T03:49:23;19.70;99.90
32446;DHT22;18899;50.748;7.102;2023-08-17T03:51:49;19.70;99.90
32446;DHT22;18899;50.748;7.102;2023-08-17T03:54:14;19.70;99.90
32446;DHT22;18899;50.748;7.102;2023-08-17T03:56:40;19.60;99.90
32446;DHT22;18899;50.748;7.102;2023-08-17T03:59:05;19.70;99.90
32446;DHT22;18899;50.748;7.102;2023-08-17T04:01:31;19.70;99.90
32446;DHT22;18899;50.748;7.102;2023-08-17T04:03:56;19.70;99.90
32446;DHT22;18899;50.748;7.102;2023-08-17T04:06:22;19.60;99.90
32446;DHT22;18899;50.748;7.102;2023-08-17T04:08:47;19.60;99.90
32446;DHT22;18899;50.748;7.102;2023-08-17T04:11:13;19.60;99.90
32446;DHT22;18899;50.748;7.102;2023-08-17T04:13:39;19.60;99.90
32446;DHT22;18899;50.748;7.102;2023-08-17T04:16:04;19.60;99.90
32446;DHT22;18899;50.748;7.102;2023-08-17T04:18:30;19.60;99.90
32446;DHT22;18899;50.748;7.102;2023-08-17T04:20:55;19.60;99.90
32446;DHT22;18899;50.748;7.102;2023-08-17T04:23:21;19.60;99.90
32446;DHT22;18899;50.748;7.102;2023-08-17T04:25:46;19.60;99.90
32446;DHT22;18899;50.748;7.102;2023-08-17T04:28:13;19.60;99.90
32446;DHT22;18899;50.748;7.102;2023-08-17T04:30:38;19.70;99.90
32446;DHT22;18899;50.748;7.102;2023-08-17T04:33:04;19.70;99.90
32446;DHT22;18899;50.748;7.102;2023-08-17T04:35:30;19.70;99.90
32446;DHT22;18899;50.748;7.102;2023-08-17T04:37:55;19.70;99.90
32446;DHT22;18899;50.748;7.102;2023-08-17T04:40:21;19.60;99.90
32446;DHT22;18899;50.748;7.102;2023-08-17T04:42:47;19.60;99.90
32446;DHT22;18899;50.748;7.102;2023-08-17T04:45:12;19.60;99.90
32446;DHT22;18899;50.748;7.102;2023-08-17T04:47:39;19.70;99.90
32446;DHT22;18899;50.748;7.102;2023-08-17T04:50:05;19.60;99.90
32446;DHT22;18899;50.748;7.102;2023-08-17T04:52:31;19.70;99.90
32446;DHT22;18899;50.748;7.102;2023-08-17T04:54:57;19.60;99.90
32446;DHT22;18899;50.748;7.102;2023-08-17T04:57:22;19.60;99.90
32446;DHT22;18899;50.748;7.102;2023-08-17T04:59:48;19.60;99.90
32446;DHT22;18899;50.748;7.102;2023-08-17T05:02:13;19.40;99.90
32446;DHT22;18899;50.748;7.102;2023-08-17T05:04:39;19.40;99.90
32446;DHT22;18899;50.748;7.102;2023-08-17T05:07:05;19.30;99.90
32446;DHT22;18899;50.748;7.102;2023-08-17T05:09:31;19.30;99.90
32446;DHT22;18899;50.748;7.102;2023-08-17T05:11:57;19.30;99.90
32446;DHT22;18899;50.748;7.102;2023-08-17T05:14:22;19.20;99.90
32446;DHT22;18899;50.748;7.102;2023-08-17T05:16:48;19.10;99.90
32446;DHT22;18899;50.748;7.102;2023-08-17T05:19:13;19.10;99.90
32446;DHT22;18899;50.748;7.102;2023-08-17T05:21:39;19.10;99.90
32446;DHT22;18899;50.748;7.102;2023-08-17T05:24:05;19.10;99.90
32446;DHT22;18899;50.748;7.102;2023-08-17T05:26:31;19.10;99.90
32446;DHT22;18899;50.748;7.102;2023-08-17T05:28:57;19.00;99.90
32446;DHT22;18899;50.748;7.102;2023-08-17T05:31:22;19.10;99.90
32446;DHT22;18899;50.748;7.102;2023-08-17T05:33:48;19.10;99.90
32446;DHT22;18899;50.748;7.102;2023-08-17T05:36:13;19.10;99.90
32446;DHT22;18899;50.748;7.102;2023-08-17T05:38:39;19.10;99.90
32446;DHT22;18899;50.748;7.102;2023-08-17T05:41:05;19.00;99.90
32446;DHT22;18899;50.748;7.102;2023-08-17T05:43:31;19.00;99.90
32446;DHT22;18899;50.748;7.102;2023-08-17T05:45:59;19.00;99.90
32446;DHT22;18899;50.748;7.102;2023-08-17T05:48:25;19.00;99.90
32446;DHT22;18899;50.748;7.102;2023-08-17T05:50:50;19.00;99.90
32446;DHT22;18899;50.748;7.102;2023-08-17T05:53:16;19.00;99.90
32446;DHT22;18899;50.748;7.102;2023-08-17T05:55:41;19.00;99.90
32446;DHT22;18899;50.748;7.102;2023-08-17T05:58:07;19.00;99.90
32446;DHT22;18899;50.748;7.102;2023-08-17T06:00:32;19.00;99.90
32446;DHT22;18899;50.748;7.102;2023-08-17T06:02:58;19.00;99.90
32446;DHT22;18899;50.748;7.102;2023-08-17T06:05:27;19.00;99.90
32446;DHT22;18899;50.748;7.102;2023-08-17T06:07:57;19.00;99.90
32446;DHT22;18899;50.748;7.102;2023-08-17T06:10:25;19.00;99.90
32446;DHT22;18899;50.748;7.102;2023-08-17T06:12:55;19.00;99.90
32446;DHT22;18899;50.748;7.102;2023-08-17T06:15:22;19.00;99.90
32446;DHT22;18899;50.748;7.102;2023-08-17T06:17:48;19.00;99.90
32446;DHT22;18899;50.748;7.102;2023-08-17T06:20:16;19.10;99.90
32446;DHT22;18899;50.748;7.102;2023-08-17T06:22:42;19.10;99.90
32446;DHT22;18899;50.748;7.102;2023-08-17T06:25:08;19.20;99.90
32446;DHT22;18899;50.748;7.102;2023-08-17T06:27:34;19.20;99.90
32446;DHT22;18899;50.748;7.102;2023-08-17T06:30:00;19.20;99.90
32446;DHT22;18899;50.748;7.102;2023-08-17T06:32:26;19.20;99.90
32446;DHT22;18899;50.748;7.102;2023-08-17T06:34:51;19.30;99.90
32446;DHT22;18899;50.748;7.102;2023-08-17T06:37:19;19.40;99.90
32446;DHT22;18899;50.748;7.102;2023-08-17T06:39:45;19.40;99.90
32446;DHT22;18899;50.748;7.102;2023-08-17T06:42:10;19.50;99.90
32446;DHT22;18899;50.748;7.102;2023-08-17T06:44:36;19.40;99.90
32446;DHT22;18899;50.748;7.102;2023-08-17T06:47:01;19.40;99.90
32446;DHT22;18899;50.748;7.102;2023-08-17T06:49:27;19.40;99.90
32446;DHT22;18899;50.748;7.102;2023-08-17T06:51:53;19.40;99.90
32446;DHT22;18899;50.748;7.102;2023-08-17T06:54:19;19.50;99.90
32446;DHT22;18899;50.748;7.102;2023-08-17T06:56:45;19.50;99.90
32446;DHT22;18899;50.748;7.102;2023-08-17T06:59:10;19.50;99.90
32446;DHT22;18899;50.748;7.102;2023-08-17T07:01:36;19.60;99.90
32446;DHT22;18899;50.748;7.102;2023-08-17T07:04:01;19.60;99.90
32446;DHT22;18899;50.748;7.102;2023-08-17T07:06:27;19.60;99.90
32446;DHT22;18899;50.748;7.102;2023-08-17T07:08:54;19.70;99.90
32446;DHT22;18899;50.748;7.102;2023-08-17T07:11:20;19.70;99.90
32446;DHT22;18899;50.748;7.102;2023-08-17T07:13:45;19.80;99.90
32446;DHT22;18899;50.748;7.102;2023-08-17T07:16:11;19.80;99.90
32446;DHT22;18899;50.748;7.102;2023-08-17T07:18:36;19.90;99.90
32446;DHT22;18899;50.748;7.102;2023-08-17T07:21:02;19.90;99.90
32446;DHT22;18899;50.748;7.102;2023-08-17T07:23:27;19.90;99.90
32446;DHT22;18899;50.748;7.102;2023-08-17T07:25:53;19.90;99.90
32446;DHT22;18899;50.748;7.102;2023-08-17T07:28:19;20.00;99.90
32446;DHT22;18899;50.748;7.102;2023-08-17T07:30:44;20.00;99.90
32446;DHT22;18899;50.748;7.102;2023-08-17T07:33:10;20.10;99.90
32446;DHT22;18899;50.748;7.102;2023-08-17T07:35:36;20.10;99.90
32446;DHT22;18899;50.748;7.102;2023-08-17T07:38:01;20.20;99.90
32446;DHT22;18899;50.748;7.102;2023-08-17T07:40:27;20.20;99.90
32446;DHT22;18899;50.748;7.102;2023-08-17T07:42:52;20.20;99.90
32446;DHT22;18899;50.748;7.102;2023-08-17T07:45:18;20.30;99.90
32446;DHT22;18899;50.748;7.102;2023-08-17T07:47:43;20.30;99.90
32446;DHT22;18899;50.748;7.102;2023-08-17T07:50:09;20.30;99.90
32446;DHT22;18899;50.748;7.102;2023-08-17T07:52:35;20.30;99.90
32446;DHT22;18899;50.748;7.102;2023-08-17T07:55:00;20.30;99.90
32446;DHT22;18899;50.748;7.102;2023-08-17T07:57:26;20.30;99.90
32446;DHT22;18899;50.748;7.102;2023-08-17T07:59:51;20.20;99.90
32446;DHT22;18899;50.748;7.102;2023-08-17T08:02:19;20.30;99.90
32446;DHT22;18899;50.748;7.102;2023-08-17T08:04:44;20.50;99.90
32446;DHT22;18899;50.748;7.102;2023-08-17T08:07:10;20.80;99.90
32446;DHT22;18899;50.748;7.102;2023-08-17T08:09:35;21.00;99.90
32446;DHT22;18899;50.748;7.102;2023-08-17T08:12:02;21.10;99.90
32446;DHT22;18899;50.748;7.102;2023-08-17T08:14:27;21.30;99.90
32446;DHT22;18899;50.748;7.102;2023-08-17T08:16:53;21.40;99.90
32446;DHT22;18899;50.748;7.102;2023-08-17T08:19:18;21.40;99.90
32446;DHT22;18899;50.748;7.102;2023-08-17T08:21:45;21.50;99.90
32446;DHT22;18899;50.748;7.102;2023-08-17T08:24:10;21.50;99.90
32446;DHT22;18899;50.748;7.102;2023-08-17T08:26:36;21.60;99.90
32446;DHT22;18899;50.748;7.102;2023-08-17T08:29:01;21.70;99.90
32446;DHT22;18899;50.748;7.102;2023-08-17T08:31:27;21.80;99.90
32446;DHT22;18899;50.748;7.102;2023-08-17T08:33:52;21.90;99.90
32446;DHT22;18899;50.748;7.102;2023-08-17T08:36:18;21.90;99.90
32446;DHT22;18899;50.748;7.102;2023-08-17T08:38:44;21.80;99.90
32446;DHT22;18899;50.748;7.102;2023-08-17T08:41:10;21.80;99.90
32446;DHT22;18899;50.748;7.102;2023-08-17T08:43:36;21.90;99.90
32446;DHT22;18899;50.748;7.102;2023-08-17T08:46:02;21.70;99.90
32446;DHT22;18899;50.748;7.102;2023-08-17T08:48:29;21.80;99.90
32446;DHT22;18899;50.748;7.102;2023-08-17T08:50:55;22.00;99.90
32446;DHT22;18899;50.748;7.102;2023-08-17T08:53:37;22.20;99.90
32446;DHT22;18899;50.748;7.102;2023-08-17T08:56:03;22.30;99.90
32446;DHT22;18899;50.748;7.102;2023-08-17T08:58:31;22.20;99.90
32446;DHT22;18899;50.748;7.102;2023-08-17T09:00:58;22.10;99.90
32446;DHT22;18899;50.748;7.102;2023-08-17T09:03:25;22.20;99.90
32446;DHT22;18899;50.748;7.102;2023-08-17T09:05:51;22.60;99.90
32446;DHT22;18899;50.748;7.102;2023-08-17T09:08:22;22.80;99.90
32446;DHT22;18899;50.748;7.102;2023-08-17T09:10:49;22.80;99.90
32446;DHT22;18899;50.748;7.102;2023-08-17T09:13:15;22.70;99.90
32446;DHT22;18899;50.748;7.102;2023-08-17T09:15:41;22.80;99.90
32446;DHT22;18899;50.748;7.102;2023-08-17T09:18:06;22.80;99.90
32446;DHT22;18899;50.748;7.102;2023-08-17T09:20:41;22.70;99.90
32446;DHT22;18899;50.748;7.102;2023-08-17T09:25:40;22.50;99.90
32446;DHT22;18899;50.748;7.102;2023-08-17T09:28:08;22.30;99.90
32446;DHT22;18899;50.748;7.102;2023-08-17T09:30:56;22.20;99.90
32446;DHT22;18899;50.748;7.102;2023-08-17T09:33:27;22.20;99.90
32446;DHT22;18899;50.748;7.102;2023-08-17T09:35:54;22.20;99.90
32446;DHT22;18899;50.748;7.102;2023-08-17T09:38:20;22.20;99.90
32446;DHT22;18899;50.748;7.102;2023-08-17T09:40:49;22.20;99.90
32446;DHT22;18899;50.748;7.102;2023-08-17T09:43:15;22.20;99.90
32446;DHT22;18899;50.748;7.102;2023-08-17T09:45:43;22.30;99.90
32446;DHT22;18899;50.748;7.102;2023-08-17T09:48:15;22.40;99.90
32446;DHT22;18899;50.748;7.102;2023-08-17T09:50:42;22.60;99.90
32446;DHT22;18899;50.748;7.102;2023-08-17T09:53:16;22.80;99.90
32446;DHT22;18899;50.748;7.102;2023-08-17T09:55:43;22.90;99.90
32446;DHT22;18899;50.748;7.102;2023-08-17T09:58:09;23.10;99.90
32446;DHT22;18899;50.748;7.102;2023-08-17T10:00:35;23.10;99.90
32446;DHT22;18899;50.748;7.102;2023-08-17T10:03:02;23.20;99.90
32446;DHT22;18899;50.748;7.102;2023-08-17T10:05:32;23.80;99.90
32446;DHT22;18899;50.748;7.102;2023-08-17T10:08:00;24.00;99.90
32446;DHT22;18899;50.748;7.102;2023-08-17T10:10:27;24.40;99.90
32446;DHT22;18899;50.748;7.102;2023-08-17T10:18:54;24.20;99.90
32446;DHT22;18899;50.748;7.102;2023-08-17T10:22:28;24.60;99.90
32446;DHT22;18899;50.748;7.102;2023-08-17T10:24:21;24.80;99.90
32446;DHT22;18899;50.748;7.102;2023-08-17T10:26:49;24.60;99.90
32446;DHT22;18899;50.748;7.102;2023-08-17T10:29:15;24.30;99.90
32446;DHT22;18899;50.748;7.102;2023-08-17T10:31:44;24.20;99.90
32446;DHT22;18899;50.748;7.102;2023-08-17T10:34:11;24.20;99.90
32446;DHT22;18899;50.748;7.102;2023-08-17T10:36:38;24.10;99.90
32446;DHT22;18899;50.748;7.102;2023-08-17T10:39:21;24.20;99.90
32446;DHT22;18899;50.748;7.102;2023-08-17T10:41:48;24.30;99.90
32446;DHT22;18899;50.748;7.102;2023-08-17T10:44:14;24.40;99.90
32446;DHT22;18899;50.748;7.102;2023-08-17T10:46:40;24.50;99.90
32446;DHT22;18899;50.748;7.102;2023-08-17T10:49:07;24.80;99.90
32446;DHT22;18899;50.748;7.102;2023-08-17T10:52:02;24.90;99.90
32446;DHT22;18899;50.748;7.102;2023-08-17T10:54:36;25.10;99.90
32446;DHT22;18899;50.748;7.102;2023-08-17T11:00:19;25.50;99.90
32446;DHT22;18899;50.748;7.102;2023-08-17T11:03:03;25.70;99.90
32446;DHT22;18899;50.748;7.102;2023-08-17T11:05:37;26.20;99.90
32446;DHT22;18899;50.748;7.102;2023-08-17T11:08:04;26.30;99.90
32446;DHT22;18899;50.748;7.102;2023-08-17T11:10:30;26.30;99.90
32446;DHT22;18899;50.748;7.102;2023-08-17T11:12:57;26.40;99.90
32446;DHT22;18899;50.748;7.102;2023-08-17T11:15:35;26.40;99.90
32446;DHT22;18899;50.748;7.102;2023-08-17T11:18:06;26.00;99.90
32446;DHT22;18899;50.748;7.102;2023-08-17T11:20:32;25.70;99.90
32446;DHT22;18899;50.748;7.102;2023-08-17T11:22:58;25.60;99.90
32446;DHT22;18899;50.748;7.102;2023-08-17T11:25:26;25.70;99.90
32446;DHT22;18899;50.748;7.102;2023-08-17T11:27:52;25.70;99.90
32446;DHT22;18899;50.748;7.102;2023-08-17T11:30:20;26.00;99.90
32446;DHT22;18899;50.748;7.102;2023-08-17T11:32:46;26.20;99.90
32446;DHT22;18899;50.748;7.102;2023-08-17T11:35:11;26.40;99.90
32446;DHT22;18899;50.748;7.102;2023-08-17T11:37:37;26.50;99.90
32446;DHT22;18899;50.748;7.102;2023-08-17T11:40:03;26.70;99.90
32446;DHT22;18899;50.748;7.102;2023-08-17T11:42:29;26.70;99.90
32446;DHT22;18899;50.748;7.102;2023-08-17T11:44:55;26.40;99.90
32446;DHT22;18899;50.748;7.102;2023-08-17T11:47:21;26.40;99.90
32446;DHT22;18899;50.748;7.102;2023-08-17T11:49:50;26.10;99.90
32446;DHT22;18899;50.748;7.102;2023-08-17T11:52:15;26.00;99.90
32446;DHT22;18899;50.748;7.102;2023-08-17T11:54:41;26.10;99.90
32446;DHT22;18899;50.748;7.102;2023-08-17T11:57:07;26.40;99.90
32446;DHT22;18899;50.748;7.102;2023-08-17T11:59:32;26.40;99.90
32446;DHT22;18899;50.748;7.102;2023-08-17T12:01:59;26.50;99.90
32446;DHT22;18899;50.748;7.102;2023-08-17T12:04:25;26.40;99.90
32446;DHT22;18899;50.748;7.102;2023-08-17T12:06:51;26.20;99.90
32446;DHT22;18899;50.748;7.102;2023-08-17T12:09:17;26.20;99.90
32446;DHT22;18899;50.748;7.102;2023-08-17T12:11:44;26.00;99.90
32446;DHT22;18899;50.748;7.102;2023-08-17T12:14:11;25.80;99.90
32446;DHT22;18899;50.748;7.102;2023-08-17T12:16:47;25.80;99.90
32446;DHT22;18899;50.748;7.102;2023-08-17T12:19:14;25.50;99.90
32446;DHT22;18899;50.748;7.102;2023-08-17T12:21:41;25.30;99.90
32446;DHT22;18899;50.748;7.102;2023-08-17T12:24:09;25.00;99.90
32446;DHT22;18899;50.748;7.102;2023-08-17T12:26:35;24.80;99.90
32446;DHT22;18899;50.748;7.102;2023-08-17T12:29:04;24.70;99.90
32446;DHT22;18899;50.748;7.102;2023-08-17T12:31:30;24.60;99.90
32446;DHT22;18899;50.748;7.102;2023-08-17T12:33:55;24.60;99.90
32446;DHT22;18899;50.748;7.102;2023-08-17T12:36:21;24.70;99.90
32446;DHT22;18899;50.748;7.102;2023-08-17T12:38:46;24.60;99.90
32446;DHT22;18899;50.748;7.102;2023-08-17T12:41:13;24.70;99.90
32446;DHT22;18899;50.748;7.102;2023-08-17T12:43:39;24.70;99.90
32446;DHT22;18899;50.748;7.102;2023-08-17T12:46:04;24.80;99.90
32446;DHT22;18899;50.748;7.102;2023-08-17T12:48:30;24.90;99.90
32446;DHT22;18899;50.748;7.102;2023-08-17T12:50:55;25.00;99.90
32446;DHT22;18899;50.748;7.102;2023-08-17T12:53:22;25.20;99.90
32446;DHT22;18899;50.748;7.102;2023-08-17T12:55:47;25.50;99.90
32446;DHT22;18899;50.748;7.102;2023-08-17T12:58:13;25.60;99.90
32446;DHT22;18899;50.748;7.102;2023-08-17T13:00:38;25.70;99.90
32446;DHT22;18899;50.748;7.102;2023-08-17T13:03:04;25.70;99.90
32446;DHT22;18899;50.748;7.102;2023-08-17T13:05:29;25.90;99.90
32446;DHT22;18899;50.748;7.102;2023-08-17T13:07:55;26.00;99.90
32446;DHT22;18899;50.748;7.102;2023-08-17T13:10:21;25.80;99.90
32446;DHT22;18899;50.748;7.102;2023-08-17T13:12:46;25.70;99.90
32446;DHT22;18899;50.748;7.102;2023-08-17T13:15:13;25.60;99.90
32446;DHT22;18899;50.748;7.102;2023-08-17T13:17:38;25.40;99.90
32446;DHT22;18899;50.748;7.102;2023-08-17T13:20:04;25.40;99.90
32446;DHT22;18899;50.748;7.102;2023-08-17T13:22:31;25.40;99.90
32446;DHT22;18899;50.748;7.102;2023-08-17T13:24:57;25.40;99.90
32446;DHT22;18899;50.748;7.102;2023-08-17T13:27:23;25.20;99.90
32446;DHT22;18899;50.748;7.102;2023-08-17T13:29:48;25.00;99.90
32446;DHT22;18899;50.748;7.102;2023-08-17T13:32:14;24.70;99.90
32446;DHT22;18899;50.748;7.102;2023-08-17T13:34:39;24.40;99.90
32446;DHT22;18899;50.748;7.102;2023-08-17T13:37:05;24.30;99.90
32446;DHT22;18899;50.748;7.102;2023-08-17T13:39:30;24.20;99.90
32446;DHT22;18899;50.748;7.102;2023-08-17T13:41:56;24.30;99.90
32446;DHT22;18899;50.748;7.102;2023-08-17T13:44:21;24.50;99.90
32446;DHT22;18899;50.748;7.102;2023-08-17T13:46:47;24.60;99.90
32446;DHT22;18899;50.748;7.102;2023-08-17T13:49:12;24.90;99.90
32446;DHT22;18899;50.748;7.102;2023-08-17T13:51:38;25.10;99.90
32446;DHT22;18899;50.748;7.102;2023-08-17T13:54:03;25.20;99.90
32446;DHT22;18899;50.748;7.102;2023-08-17T13:56:29;25.20;99.90
32446;DHT22;18899;50.748;7.102;2023-08-17T13:58:54;25.40;99.90
32446;DHT22;18899;50.748;7.102;2023-08-17T14:01:20;25.50;99.90
32446;DHT22;18899;50.748;7.102;2023-08-17T14:03:45;25.70;99.90
32446;DHT22;18899;50.748;7.102;2023-08-17T14:06:11;26.10;99.90
32446;DHT22;18899;50.748;7.102;2023-08-17T14:08:36;26.40;99.90
32446;DHT22;18899;50.748;7.102;2023-08-17T14:11:02;26.50;99.90
32446;DHT22;18899;50.748;7.102;2023-08-17T14:13:29;26.50;99.90
32446;DHT22;18899;50.748;7.102;2023-08-17T14:15:54;26.10;99.90
32446;DHT22;18899;50.748;7.102;2023-08-17T14:18:21;26.00;99.90
32446;DHT22;18899;50.748;7.102;2023-08-17T14:20:47;25.90;99.90
32446;DHT22;18899;50.748;7.102;2023-08-17T14:23:13;25.80;99.90
32446;DHT22;18899;50.748;7.102;2023-08-17T14:25:38;25.70;99.90
32446;DHT22;18899;50.748;7.102;2023-08-17T14:28:04;25.90;99.90
32446;DHT22;18899;50.748;7.102;2023-08-17T14:30:30;25.90;99.90
32446;DHT22;18899;50.748;7.102;2023-08-17T14:32:56;25.80;99.90
32446;DHT22;18899;50.748;7.102;2023-08-17T14:35:21;25.90;99.90
32446;DHT22;18899;50.748;7.102;2023-08-17T14:37:47;25.80;99.90
32446;DHT22;18899;50.748;7.102;2023-08-17T14:40:12;25.80;99.90
32446;DHT22;18899;50.748;7.102;2023-08-17T14:42:38;25.70;99.90
32446;DHT22;18899;50.748;7.102;2023-08-17T14:45:04;25.60;99.90
32446;DHT22;18899;50.748;7.102;2023-08-17T14:47:30;25.40;99.90
32446;DHT22;18899;50.748;7.102;2023-08-17T14:49:55;25.20;99.90
32446;DHT22;18899;50.748;7.102;2023-08-17T14:52:21;25.30;99.90
32446;DHT22;18899;50.748;7.102;2023-08-17T14:54:47;25.40;99.90
32446;DHT22;18899;50.748;7.102;2023-08-17T14:57:12;25.50;99.90
32446;DHT22;18899;50.748;7.102;2023-08-17T14:59:38;25.50;99.90
32446;DHT22;18899;50.748;7.102;2023-08-17T15:02:03;25.50;99.90
32446;DHT22;18899;50.748;7.102;2023-08-17T15:04:29;25.30;99.90
32446;DHT22;18899;50.748;7.102;2023-08-17T15:06:55;25.30;99.90
32446;DHT22;18899;50.748;7.102;2023-08-17T15:09:20;25.20;99.90
32446;DHT22;18899;50.748;7.102;2023-08-17T15:11:46;25.20;99.90
32446;DHT22;18899;50.748;7.102;2023-08-17T15:14:12;25.20;99.90
32446;DHT22;18899;50.748;7.102;2023-08-17T15:16:37;25.20;99.90
32446;DHT22;18899;50.748;7.102;2023-08-17T15:19:03;25.30;99.90
32446;DHT22;18899;50.748;7.102;2023-08-17T15:21:28;25.30;99.90
32446;DHT22;18899;50.748;7.102;2023-08-17T15:23:54;25.50;99.90
32446;DHT22;18899;50.748;7.102;2023-08-17T15:26:19;25.50;99.90
32446;DHT22;18899;50.748;7.102;2023-08-17T15:28:45;25.40;99.90
32446;DHT22;18899;50.748;7.102;2023-08-17T15:31:10;25.30;99.90
32446;DHT22;18899;50.748;7.102;2023-08-17T15:33:39;25.40;99.90
32446;DHT22;18899;50.748;7.102;2023-08-17T15:36:05;25.20;99.90
32446;DHT22;18899;50.748;7.102;2023-08-17T15:38:30;25.00;99.90